Time;durP1;ratioP1;P1;durP2;ratioP2;P2;SDS_P1;SDS_P2;PMS_P1;PMS_P2;Temp;Humidity;BMP_temperature;BMP_pressure;BME280_temperature;BME280_humidity;BME280_pressure;Samples;Min_cycle;Max_cycle;Signal;HPM_P1;HPM_P2
2021/01/12 03:46:49;;;;;;;18.30;8.10;;;-2.60;90.80;;;;;;5237762;23;90487;-81
2021/01/12 03:49:15;;;;;;;23.90;10.73;;;-2.70;90.70;;;;;;4930318;28;88361;-81
2021/01/12 03:51:40;;;;;;;21.70;8.60;;;-2.70;90.30;;;;;;4930649;28;86842;-81
2021/01/12 03:54:06;;;;;;;20.92;9.55;;;;;;;;;;4928653;28;86622;-81
2021/01/12 03:56:32;;;;;;;20.65;7.57;;;-2.70;90.40;;;;;;4930481;28;86675;-81
2021/01/12 03:58:58;;;;;;;17.27;6.97;;;-2.70;90.70;;;;;;4930360;28;86396;-80
2021/01/12 04:01:23;;;;;;;20.13;10.55;;;-2.80;90.90;;;;;;4930390;28;86198;-81
2021/01/12 04:03:49;;;;;;;21.65;9.60;;;-2.80;91.60;;;;;;4930283;28;85953;-81
2021/01/12 04:06:16;;;;;;;9.63;4.28;;;-2.70;91.80;;;;;;4930121;28;87386;-81
2021/01/12 04:08:43;;;;;;;19.67;8.95;;;-2.90;92.20;;;;;;4909277;28;90668;-80
2021/01/12 04:11:13;;;;;;;20.63;8.40;;;-3.00;92.40;;;;;;4914259;28;87792;-80
2021/01/12 04:13:39;;;;;;;21.40;8.52;;;-3.00;92.30;;;;;;4927964;28;87207;-81
2021/01/12 04:16:06;;;;;;;19.35;9.65;;;-2.90;92.00;;;;;;4930408;28;87178;-80
2021/01/12 04:18:33;;;;;;;27.63;10.27;;;-2.80;91.70;;;;;;4930215;28;87331;-81
2021/01/12 04:20:59;;;;;;;16.15;8.23;;;-2.80;91.90;;;;;;4929660;28;86881;-80
2021/01/12 04:23:25;;;;;;;17.95;7.07;;;-2.70;91.60;;;;;;4930814;28;86819;-82
2021/01/12 04:25:51;;;;;;;14.90;7.18;;;-2.80;90.80;;;;;;4933169;28;87119;-82
2021/01/12 04:28:16;;;;;;;22.63;7.00;;;-2.70;90.20;;;;;;4933787;28;87536;-81
2021/01/12 04:30:42;;;;;;;20.70;8.13;;;-2.70;90.60;;;;;;4935632;28;86529;-82
2021/01/12 04:33:09;;;;;;;14.70;7.53;;;;;;;;;;4934522;28;86523;-81
2021/01/12 04:35:35;;;;;;;20.35;9.25;;;-2.60;89.80;;;;;;4933711;28;89161;-82
2021/01/12 04:38:01;;;;;;;16.35;8.68;;;-2.60;90.10;;;;;;4933765;28;88399;-80
2021/01/12 04:40:27;;;;;;;18.55;9.38;;;-2.50;90.40;;;;;;4912810;28;87011;-81
2021/01/12 04:42:56;;;;;;;17.15;9.52;;;-2.40;90.00;;;;;;4936447;28;86690;-81
2021/01/12 04:45:22;;;;;;;18.08;8.55;;;;;;;;;;4931659;28;86957;-81
2021/01/12 04:47:48;;;;;;;17.20;9.18;;;-2.40;89.10;;;;;;4932064;28;87633;-81
2021/01/12 04:50:13;;;;;;;18.65;8.80;;;-2.40;89.50;;;;;;4919004;28;86948;-82
2021/01/12 04:52:50;;;;;;;20.85;9.18;;;-2.30;89.90;;;;;;4915450;28;86783;-81
2021/01/12 04:55:21;;;;;;;15.52;8.18;;;-2.30;89.60;;;;;;4931884;28;87434;-82
2021/01/12 04:57:48;;;;;;;8.23;3.67;;;-2.40;86.80;;;;;;4931622;28;87020;-82
2021/01/12 05:00:23;;;;;;;12.90;6.93;;;-2.30;82.40;;;;;;4930707;28;87429;-82
2021/01/12 05:03:15;;;;;;;13.13;6.78;;;-2.30;85.90;;;;;;4914817;28;89989;-81
2021/01/12 05:05:41;;;;;;;13.52;7.13;;;-2.20;87.50;;;;;;4920732;28;87462;-81
2021/01/12 05:08:09;;;;;;;17.73;8.77;;;-2.30;84.90;;;;;;4927901;28;87243;-82
2021/01/12 05:10:40;;;;;;;10.68;6.53;;;-2.20;84.10;;;;;;4914376;28;86553;-82
2021/01/12 05:13:08;;;;;;;11.52;6.82;;;-2.30;84.60;;;;;;4931094;28;86175;-81
2021/01/12 05:15:36;;;;;;;11.70;7.20;;;-2.20;81.70;;;;;;4931898;28;87668;-82
2021/01/12 05:18:05;;;;;;;13.55;7.10;;;-2.10;82.60;;;;;;4931614;28;86714;-81
2021/01/12 05:20:37;;;;;;;8.60;5.88;;;-2.00;80.10;;;;;;4930352;28;87739;-82
2021/01/12 05:23:22;;;;;;;9.43;5.03;;;-2.00;80.60;;;;;;4930909;28;86245;-82
2021/01/12 05:25:51;;;;;;;10.00;5.30;;;-1.90;78.20;;;;;;4911469;28;90558;-82
2021/01/12 05:28:18;;;;;;;13.23;5.32;;;-1.80;78.90;;;;;;4899230;28;90098;-82
2021/01/12 05:30:47;;;;;;;12.82;5.03;;;-1.80;76.00;;;;;;4920859;28;86574;-82
2021/01/12 05:33:19;;;;;;;7.97;4.38;;;-1.80;76.50;;;;;;4929570;28;86928;-82
2021/01/12 05:35:47;;;;;;;13.07;6.10;;;-1.70;75.70;;;;;;4929106;28;87046;-81
2021/01/12 05:38:27;;;;;;;12.57;6.13;;;-1.70;77.10;;;;;;4928956;28;87095;-81
2021/01/12 05:40:58;;;;;;;8.32;4.70;;;-1.80;78.50;;;;;;4928628;28;86905;-83
2021/01/12 05:43:36;;;;;;;13.30;6.72;;;-1.90;78.40;;;;;;4925138;28;85994;-81
2021/01/12 05:46:09;;;;;;;10.15;4.18;;;-1.90;79.70;;;;;;4912171;28;747158;-81
2021/01/12 05:48:36;;;;;;;8.43;4.90;;;-2.00;79.60;;;;;;4924877;28;87003;-80
2021/01/12 05:51:05;;;;;;;7.93;4.45;;;-2.00;79.80;;;;;;4926454;28;87919;-80
2021/01/12 05:53:46;;;;;;;11.00;6.22;;;-2.10;79.30;;;;;;4928302;28;87494;-82
2021/01/12 05:56:21;;;;;;;13.07;5.63;;;-2.20;80.10;;;;;;4930713;28;87040;-83
2021/01/12 05:58:49;;;;;;;12.15;7.53;;;-2.30;80.30;;;;;;4925862;28;86750;-82
2021/01/12 06:01:38;;;;;;;7.93;3.47;;;-2.30;80.30;;;;;;4929442;28;86985;-82
2021/01/12 06:04:09;;;;;;;25.42;5.65;;;-2.40;81.00;;;;;;4921345;28;86885;-81
2021/01/12 06:06:40;;;;;;;13.13;6.57;;;-2.40;81.70;;;;;;4927514;28;87101;-82
2021/01/12 06:09:10;;;;;;;13.30;7.03;;;-2.50;82.80;;;;;;4929855;28;87552;-82
2021/01/12 06:11:37;;;;;;;12.52;5.97;;;-2.60;82.60;;;;;;4928476;28;87011;-82
2021/01/12 06:14:13;;;;;;;8.18;4.70;;;-2.60;84.00;;;;;;4926393;28;87111;-83
2021/01/12 06:16:44;;;;;;;10.35;4.78;;;-2.60;83.10;;;;;;4928668;28;87916;-82
2021/01/12 06:19:15;;;;;;;11.52;6.40;;;-2.60;83.70;;;;;;4937500;28;87922;-82
2021/01/12 06:21:56;;;;;;;5.32;3.65;;;-2.60;83.60;;;;;;4943342;28;86249;-79
2021/01/12 06:24:24;;;;;;;;;;;-2.60;83.00;;;;;;4930295;28;87115;-81
2021/01/12 06:26:53;;;;;;;12.38;5.95;;;-2.50;82.90;;;;;;4931632;28;87544;-80
2021/01/12 06:29:19;;;;;;;12.02;5.53;;;-2.50;81.60;;;;;;4910148;28;88098;-81
2021/01/12 06:31:46;;;;;;;16.02;6.75;;;-2.50;82.10;;;;;;4911106;28;86293;-81
2021/01/12 06:34:21;;;;;;;6.45;3.97;;;-2.30;79.50;;;;;;4930578;28;86224;-81
2021/01/12 06:36:55;;;;;;;12.75;5.25;;;-2.30;80.00;;;;;;4928625;28;86990;-81
2021/01/12 06:39:23;;;;;;;8.30;4.90;;;-2.10;78.90;;;;;;4927219;28;86874;-81
2021/01/12 06:41:52;;;;;;;6.07;4.15;;;-1.90;77.10;;;;;;4926865;28;87626;-81
2021/01/12 06:44:24;;;;;;;9.02;3.63;;;-1.80;76.70;;;;;;4928856;28;86979;-80
2021/01/12 06:46:52;;;;;;;6.30;3.15;;;-1.80;77.20;;;;;;4926456;28;88363;-81
2021/01/12 06:49:23;;;;;;;9.25;5.55;;;-1.80;77.30;;;;;;4927276;28;86974;-79
2021/01/12 06:52:00;;;;;;;9.57;6.03;;;-1.80;76.40;;;;;;4927032;28;86658;-81
2021/01/12 06:54:41;;;;;;;7.28;3.85;;;-1.80;76.60;;;;;;4927051;28;86915;-80
2021/01/12 06:57:12;;;;;;;9.65;4.47;;;-1.70;76.30;;;;;;4927788;28;87274;-81
2021/01/12 06:59:46;;;;;;;8.10;4.93;;;-1.60;74.70;;;;;;4927068;28;87442;-79
2021/01/12 07:02:31;;;;;;;6.38;3.67;;;-1.40;73.00;;;;;;4927801;28;86169;-80
2021/01/12 07:05:08;;;;;;;5.95;3.38;;;-1.20;72.00;;;;;;4927467;28;86661;-81
2021/01/12 07:07:39;;;;;;;8.05;4.78;;;-1.00;70.20;;;;;;4928684;28;88581;-81
2021/01/12 07:10:07;;;;;;;;;;;-0.90;70.30;;;;;;4935664;28;88159;-80
2021/01/12 07:12:32;;;;;;;7.20;4.28;;;-0.80;71.00;;;;;;4920682;28;86190;-79
2021/01/12 07:15:05;;;;;;;12.48;6.47;;;-0.90;72.30;;;;;;4937175;28;86964;-80
2021/01/12 07:17:33;;;;;;;10.75;4.70;;;-0.90;72.70;;;;;;4936674;28;86558;-79
2021/01/12 07:20:09;;;;;;;8.48;4.88;;;-1.10;74.60;;;;;;4938634;28;86932;-79
2021/01/12 07:22:36;;;;;;;14.15;5.28;;;-1.10;75.30;;;;;;4934195;28;86513;-81
2021/01/12 07:25:05;;;;;;;9.73;4.57;;;-1.10;76.40;;;;;;4931248;28;86297;-81
2021/01/12 07:27:31;;;;;;;8.57;5.57;;;-1.20;76.70;;;;;;4931311;28;87243;-81
2021/01/12 07:29:59;;;;;;;10.65;5.20;;;-1.30;77.30;;;;;;4931402;28;86890;-81
2021/01/12 07:32:33;;;;;;;10.18;6.00;;;-1.30;77.70;;;;;;4930183;28;88106;-81
2021/01/12 07:35:10;;;;;;;9.60;5.10;;;-1.30;77.10;;;;;;4937567;28;86806;-79
2021/01/12 07:37:38;;;;;;;10.35;5.15;;;-1.30;77.80;;;;;;4938659;28;87063;-80
2021/01/12 07:40:13;;;;;;;11.55;5.85;;;-1.40;78.40;;;;;;4939289;28;86326;-79
2021/01/12 07:43:05;;;;;;;8.82;5.13;;;-1.40;78.40;;;;;;4934053;28;86174;-80
2021/01/12 07:45:34;;;;;;;8.15;4.28;;;-1.40;78.50;;;;;;4918119;28;86677;-81
2021/01/12 07:48:02;;;;;;;10.60;5.65;;;-1.40;78.60;;;;;;4935967;28;87288;-79
2021/01/12 07:50:29;;;;;;;12.27;5.75;;;-1.40;77.50;;;;;;4937472;28;87388;-79
2021/01/12 07:52:56;;;;;;;6.68;4.70;;;-1.40;78.00;;;;;;4937131;28;87075;-79
2021/01/12 07:55:23;;;;;;;11.88;6.25;;;-1.30;77.20;;;;;;4932562;28;86368;-81
2021/01/12 07:57:50;;;;;;;12.48;7.05;;;-1.20;77.20;;;;;;4931584;28;88651;-81
2021/01/12 08:00:17;;;;;;;13.40;7.45;;;-1.20;76.80;;;;;;4932984;28;87316;-80
2021/01/12 08:02:50;;;;;;;9.90;5.43;;;-1.10;77.20;;;;;;4931746;28;86515;-80
2021/01/12 08:05:18;;;;;;;11.57;5.13;;;-1.10;76.40;;;;;;4929915;28;86879;-80
2021/01/12 08:07:44;;;;;;;13.63;6.28;;;-1.00;75.80;;;;;;4930817;28;86962;-81
2021/01/12 08:10:11;;;;;;;9.93;5.72;;;-0.90;75.40;;;;;;4930581;28;87057;-81
2021/01/12 08:12:37;;;;;;;10.70;5.10;;;-0.90;75.00;;;;;;4912204;28;87079;-80
2021/01/12 08:15:08;;;;;;;7.72;6.07;;;-0.80;75.30;;;;;;4932354;28;86394;-80
2021/01/12 08:17:35;;;;;;;9.15;5.18;;;-0.80;74.70;;;;;;4931472;28;86861;-80
2021/01/12 08:20:05;;;;;;;13.23;5.63;;;-0.70;74.20;;;;;;4930400;28;88244;-81
2021/01/12 08:22:30;;;;;;;9.88;5.10;;;-0.70;73.60;;;;;;4921223;28;87874;-80
2021/01/12 08:25:06;;;;;;;10.82;5.07;;;-0.60;72.70;;;;;;4930562;28;86263;-82
2021/01/12 08:27:33;;;;;;;10.43;5.75;;;-0.60;73.20;;;;;;4929701;28;88026;-81
2021/01/12 08:30:09;;;;;;;9.93;4.20;;;-0.60;73.10;;;;;;4930238;28;88523;-81
2021/01/12 08:32:43;;;;;;;8.13;5.22;;;-0.60;72.60;;;;;;4933311;28;86592;-81
2021/01/12 08:35:12;;;;;;;13.65;7.45;;;-0.50;72.60;;;;;;4929952;28;86271;-82
2021/01/12 08:37:43;;;;;;;10.38;5.70;;;-0.50;72.30;;;;;;4929340;28;86681;-82
2021/01/12 08:40:11;;;;;;;8.30;4.70;;;-0.40;71.40;;;;;;4929049;28;87277;-81
2021/01/12 08:42:38;;;;;;;9.00;4.40;;;-0.30;71.60;;;;;;4930369;28;86729;-81
2021/01/12 08:45:15;;;;;;;4.30;3.40;;;-0.40;71.30;;;;;;4929945;28;86329;-81
2021/01/12 08:47:41;;;;;;;9.95;5.05;;;-0.40;71.30;;;;;;4909944;28;91355;-80
2021/01/12 08:50:08;;;;;;;7.95;3.85;;;-0.30;71.20;;;;;;4909739;28;89367;-79
2021/01/12 08:52:39;;;;;;;11.50;4.70;;;-0.30;70.40;;;;;;4929892;28;86339;-79
2021/01/12 08:55:21;;;;;;;10.02;5.60;;;-0.30;70.30;;;;;;4928552;28;86835;-81
2021/01/12 08:58:00;;;;;;;8.38;4.57;;;-0.20;69.50;;;;;;4931878;28;86851;-80
2021/01/12 09:00:34;;;;;;;9.55;4.93;;;-0.20;69.40;;;;;;4932344;28;87360;-81
2021/01/12 09:03:01;;;;;;;7.40;4.22;;;-0.20;68.60;;;;;;4929441;28;86859;-81
2021/01/12 09:05:30;;;;;;;10.77;4.47;;;-0.10;67.70;;;;;;4929695;28;86239;-81
2021/01/12 09:08:07;;;;;;;9.80;4.07;;;0.00;67.20;;;;;;4930853;28;87495;-81
2021/01/12 09:10:34;;;;;;;9.25;3.70;;;0.10;67.10;;;;;;4932878;28;87433;-81
2021/01/12 09:13:01;;;;;;;9.48;4.07;;;0.10;66.90;;;;;;4929041;28;87536;-79
2021/01/12 09:15:31;;;;;;;6.32;3.97;;;0.20;66.70;;;;;;4929063;28;86843;-81
2021/01/12 09:18:21;;;;;;;6.10;3.53;;;0.30;66.30;;;;;;4929764;28;87025;-81
2021/01/12 09:20:59;;;;;;;8.38;3.67;;;0.40;64.60;;;;;;4929056;28;87101;-80
2021/01/12 09:23:25;;;;;;;11.15;5.30;;;0.60;63.50;;;;;;4928542;28;87063;-81
2021/01/12 09:25:53;;;;;;;8.95;4.60;;;0.70;63.40;;;;;;4929548;28;86286;-81
2021/01/12 09:28:35;;;;;;;9.30;4.72;;;0.80;63.30;;;;;;4928962;28;87407;-80
2021/01/12 09:31:04;;;;;;;9.25;4.50;;;0.90;62.60;;;;;;4928897;28;86229;-81
2021/01/12 09:33:30;;;;;;;8.38;3.67;;;1.00;62.60;;;;;;4928398;28;86858;-80
2021/01/12 09:36:05;;;;;;;7.55;3.92;;;1.00;62.40;;;;;;4928690;28;86197;-80
2021/01/12 09:38:44;;;;;;;6.72;3.75;;;1.10;61.80;;;;;;4927383;28;89440;-81
2021/01/12 09:41:11;;;;;;;9.80;5.78;;;1.10;62.70;;;;;;4927184;28;88667;-80
2021/01/12 09:43:37;;;;;;;13.65;4.82;;;1.00;64.00;;;;;;4927113;28;87080;-80
2021/01/12 09:46:03;;;;;;;7.53;3.95;;;1.00;63.80;;;;;;4925541;28;86828;-80
2021/01/12 09:48:29;;;;;;;9.23;5.10;;;1.00;63.10;;;;;;4926997;28;87020;-80
2021/01/12 09:50:54;;;;;;;9.43;4.28;;;1.00;63.40;;;;;;4927497;28;86751;-80
2021/01/12 09:53:20;;;;;;;15.75;6.93;;;1.00;62.90;;;;;;4927979;28;87028;-81
2021/01/12 09:55:46;;;;;;;9.68;5.35;;;1.00;63.50;;;;;;4928020;28;86124;-80
2021/01/12 09:58:12;;;;;;;9.52;5.80;;;1.00;62.80;;;;;;4927558;28;87590;-81
2021/01/12 10:00:38;;;;;;;11.95;5.38;;;1.00;63.60;;;;;;4928038;28;86638;-81
2021/01/12 10:03:04;;;;;;;13.60;6.80;;;1.10;64.10;;;;;;4927268;28;87675;-81
2021/01/12 10:05:30;;;;;;;10.52;3.75;;;1.00;64.90;;;;;;4926603;28;86823;-80
2021/01/12 10:07:56;;;;;;;8.80;4.60;;;0.90;64.20;;;;;;4927071;28;87293;-80
2021/01/12 10:10:21;;;;;;;6.10;3.15;;;0.90;64.70;;;;;;4926902;28;87262;-80
2021/01/12 10:12:47;;;;;;;6.78;4.07;;;1.00;61.50;;;;;;4927165;28;86979;-79
2021/01/12 10:15:13;;;;;;;7.78;3.83;;;1.00;61.20;;;;;;4927260;28;86881;-81
2021/01/12 10:17:39;;;;;;;4.43;3.20;;;1.10;60.50;;;;;;4927678;28;87378;-80
2021/01/12 10:20:06;;;;;;;6.07;3.08;;;1.20;59.60;;;;;;4928406;28;86257;-80
2021/01/12 10:22:31;;;;;;;5.65;3.63;;;1.20;59.00;;;;;;4919437;28;86407;-81
2021/01/12 10:24:59;;;;;;;9.80;4.13;;;1.30;58.60;;;;;;4927166;28;86887;-82
2021/01/12 10:27:31;;;;;;;8.20;4.32;;;1.30;58.20;;;;;;4926181;28;88494;-81
2021/01/12 10:29:57;;;;;;;11.10;4.75;;;1.30;58.90;;;;;;4928351;28;88145;-82
2021/01/12 10:32:25;;;;;;;7.10;3.85;;;1.30;59.10;;;;;;4927685;28;87191;-80
2021/01/12 10:34:51;;;;;;;10.85;5.35;;;1.30;59.50;;;;;;4927201;28;86828;-81
2021/01/12 10:37:17;;;;;;;11.38;4.50;;;1.30;60.10;;;;;;4927496;28;86724;-81
2021/01/12 10:39:43;;;;;;;8.15;4.25;;;1.30;59.60;;;;;;4926901;28;86511;-80
2021/01/12 10:42:09;;;;;;;6.88;3.20;;;1.30;59.50;;;;;;4935420;28;86894;-80
2021/01/12 10:44:34;;;;;;;4.00;2.67;;;1.30;56.90;;;;;;4931695;28;86063;-81
2021/01/12 10:47:00;;;;;;;8.27;3.33;;;1.50;54.80;;;;;;4930312;28;87267;-82
2021/01/12 10:49:26;;;;;;;4.40;2.90;;;1.60;55.30;;;;;;4912464;28;88049;-80
2021/01/12 10:52:03;;;;;;;8.48;2.60;;;1.70;55.90;;;;;;4930648;28;87823;-80
2021/01/12 10:54:29;;;;;;;6.82;3.70;;;1.80;55.30;;;;;;4912170;28;86621;-80
2021/01/12 10:56:55;;;;;;;9.55;3.90;;;1.80;55.60;;;;;;4929564;28;86961;-80
2021/01/12 10:59:23;;;;;;;6.22;3.10;;;1.80;55.60;;;;;;4929806;28;88263;-79
2021/01/12 11:02:00;;;;;;;6.40;3.90;;;1.90;54.70;;;;;;4929096;28;86723;-81
2021/01/12 11:04:26;;;;;;;3.55;2.53;;;2.00;53.60;;;;;;4916618;28;88590;-83
2021/01/12 11:06:53;;;;;;;6.13;3.78;;;2.00;53.20;;;;;;4933166;28;87119;-81
2021/01/12 11:09:20;;;;;;;11.48;3.33;;;2.00;54.60;;;;;;4930406;28;88162;-81
2021/01/12 11:11:48;;;;;;;6.43;3.30;;;1.90;54.60;;;;;;4929473;28;86753;-81
2021/01/12 11:14:18;;;;;;;5.00;3.13;;;1.90;56.10;;;;;;4930744;28;86881;-80
2021/01/12 11:16:46;;;;;;;6.55;3.42;;;2.00;55.40;;;;;;4929483;28;88341;-81
2021/01/12 11:19:13;;;;;;;5.60;2.97;;;1.90;55.70;;;;;;4929339;28;87015;-81
2021/01/12 11:21:50;;;;;;;6.00;2.97;;;1.90;56.50;;;;;;4930496;28;86811;-80
2021/01/12 11:24:23;;;;;;;5.38;3.47;;;1.60;57.70;;;;;;4927225;28;86929;-80
2021/01/12 11:26:50;;;;;;;9.63;3.38;;;1.60;58.70;;;;;;4927220;28;87263;-80
2021/01/12 11:29:17;;;;;;;8.45;4.15;;;1.50;59.60;;;;;;4910723;28;87306;-79
2021/01/12 11:31:44;;;;;;;6.38;3.80;;;1.40;59.60;;;;;;4910456;28;87114;-80
2021/01/12 11:34:11;;;;;;;13.60;4.85;;;1.30;60.60;;;;;;4927341;28;86411;-80
2021/01/12 11:36:43;;;;;;;9.27;3.78;;;1.30;61.20;;;;;;4928057;28;86923;-80
2021/01/12 11:39:20;;;;;;;9.50;3.50;;;1.20;61.70;;;;;;4924870;28;87063;-80
2021/01/12 11:41:50;;;;;;;7.13;4.45;;;1.20;61.90;;;;;;4927744;28;87844;-80
2021/01/12 11:44:20;;;;;;;8.02;3.70;;;1.20;61.40;;;;;;4926010;28;87060;-83
2021/01/12 11:46:46;;;;;;;7.97;4.32;;;1.10;62.00;;;;;;4928876;28;86980;-80
2021/01/12 11:49:12;;;;;;;6.80;3.58;;;1.10;62.60;;;;;;4933003;28;87269;-81
2021/01/12 11:51:45;;;;;;;6.93;3.88;;;1.10;63.10;;;;;;4929004;28;86871;-81
2021/01/12 11:54:11;;;;;;;7.32;4.07;;;1.10;64.20;;;;;;4925933;28;86490;-79
2021/01/12 11:56:38;;;;;;;12.13;3.88;;;1.00;64.50;;;;;;4932081;28;87017;-81
2021/01/12 11:59:05;;;;;;;6.80;3.78;;;1.00;64.70;;;;;;4933830;28;87222;-80
2021/01/12 12:01:52;;;;;;;8.80;4.53;;;0.90;65.70;;;;;;4926331;28;87146;-81
2021/01/12 12:04:19;;;;;;;8.85;5.40;;;0.80;67.20;;;;;;4929510;28;86669;-81
2021/01/12 12:06:49;;;;;;;5.38;3.35;;;0.80;66.70;;;;;;4932325;28;88249;-81
2021/01/12 12:09:15;;;;;;;8.18;4.38;;;0.80;66.30;;;;;;4930593;28;88216;-82
2021/01/12 12:11:41;;;;;;;5.82;3.30;;;0.80;65.80;;;;;;4929327;28;86702;-81
2021/01/12 12:14:08;;;;;;;6.18;4.05;;;0.80;65.60;;;;;;4932155;28;86888;-85
2021/01/12 12:16:35;;;;;;;7.13;4.10;;;0.80;65.90;;;;;;4935140;28;88587;-84
2021/01/12 12:19:02;;;;;;;7.00;4.30;;;0.80;65.90;;;;;;4928585;28;87898;-85
2021/01/12 12:21:34;;;;;;;6.28;3.38;;;0.80;66.70;;;;;;4931259;28;86953;-86
2021/01/12 12:24:01;;;;;;;8.18;4.13;;;0.80;65.30;;;;;;4935779;28;85911;-84
2021/01/12 12:26:27;;;;;;;7.60;3.78;;;;;;;;;;4916211;28;87962;-84
2021/01/12 12:28:52;;;;;;;7.28;3.25;;;0.90;64.60;;;;;;4931595;28;86895;-85
2021/01/12 12:31:18;;;;;;;8.20;3.80;;;0.90;65.10;;;;;;4930491;28;87684;-84
2021/01/12 12:33:48;;;;;;;5.90;3.90;;;0.90;64.90;;;;;;4917161;28;86939;-85
2021/01/12 12:36:17;;;;;;;5.37;3.23;;;0.90;65.10;;;;;;4931566;28;87672;-85
2021/01/12 12:38:44;;;;;;;5.32;3.67;;;1.00;65.00;;;;;;4930389;28;87405;-84
2021/01/12 12:41:17;;;;;;;10.02;4.07;;;1.00;65.30;;;;;;4931773;28;86851;-83
2021/01/12 12:43:45;;;;;;;4.07;2.50;;;1.00;65.70;;;;;;4931965;28;87021;-84
2021/01/12 12:46:12;;;;;;;7.55;3.35;;;1.10;65.60;;;;;;4939345;28;87318;-87
2021/01/12 12:48:39;;;;;;;13.65;4.40;;;1.10;66.20;;;;;;4932914;28;88138;-86
2021/01/12 12:51:06;;;;;;;7.35;3.85;;;1.10;67.50;;;;;;4929998;28;86662;-86
2021/01/12 12:53:38;;;;;;;9.63;3.55;;;1.20;67.40;;;;;;4936797;28;86736;-85
2021/01/12 12:56:04;;;;;;;8.00;3.25;;;1.30;66.10;;;;;;4930154;28;88669;-84
2021/01/12 12:58:31;;;;;;;6.78;3.25;;;;;;;;;;4913773;28;91497;-87
2021/01/12 13:00:57;;;;;;;9.60;3.47;;;1.40;64.60;;;;;;4933203;28;86580;-87
2021/01/12 13:03:23;;;;;;;7.00;3.50;;;1.40;64.90;;;;;;4930793;28;86992;-86
2021/01/12 13:05:49;;;;;;;6.65;3.00;;;1.50;65.80;;;;;;4940607;28;86583;-84
2021/01/12 13:08:16;;;;;;;3.47;2.50;;;1.50;65.80;;;;;;4930278;28;86625;-83
2021/01/12 13:10:43;;;;;;;9.35;3.47;;;1.50;67.50;;;;;;4928788;28;86920;-84
2021/01/12 13:13:10;;;;;;;3.25;2.10;;;1.50;68.90;;;;;;4939315;28;86147;-83
2021/01/12 13:15:37;;;;;;;6.28;2.97;;;1.50;70.00;;;;;;4935974;28;87641;-87
2021/01/12 13:18:12;;;;;;;1.50;1.33;;;1.40;76.50;;;;;;4932923;28;87422;-83
2021/01/12 13:20:39;;;;;;;3.67;2.30;;;1.30;78.20;;;;;;4934618;28;87384;-86
2021/01/12 13:23:09;;;;;;;5.53;2.60;;;1.10;83.00;;;;;;4940409;28;87858;-86
2021/01/12 13:25:36;;;;;;;5.53;2.40;;;1.00;87.60;;;;;;4941269;28;86909;-83
2021/01/12 13:28:03;;;;;;;5.50;2.80;;;0.90;91.60;;;;;;4932244;28;87331;-85
2021/01/12 13:30:29;;;;;;;3.25;1.73;;;0.80;91.40;;;;;;4943848;28;86220;-85
2021/01/12 13:32:55;;;;;;;6.38;3.05;;;0.80;93.10;;;;;;4923984;28;86266;-87
2021/01/12 13:35:23;;;;;;;2.58;2.03;;;0.80;99.80;;;;;;4928001;28;88467;-84
2021/01/12 13:37:51;;;;;;;3.60;2.42;;;0.80;99.90;;;;;;4944333;28;86292;-86
2021/01/12 13:40:20;;;;;;;2.88;2.20;;;0.90;99.90;;;;;;4946612;28;86292;-86
2021/01/12 13:42:50;;;;;;;4.22;2.15;;;0.90;99.90;;;;;;4934883;28;86969;-86
2021/01/12 13:45:17;;;;;;;5.15;1.98;;;0.80;99.90;;;;;;4906291;28;91107;-86
2021/01/12 13:47:43;;;;;;;1.92;1.67;;;0.80;99.90;;;;;;4931672;28;88375;-85
2021/01/12 13:50:10;;;;;;;5.45;2.47;;;0.80;99.90;;;;;;4932549;28;86884;-84
2021/01/12 13:52:38;;;;;;;4.07;2.05;;;0.80;99.90;;;;;;4935599;28;86725;-85
2021/01/12 13:55:05;;;;;;;3.10;2.42;;;0.70;99.90;;;;;;4920011;28;87692;-86
2021/01/12 13:57:33;;;;;;;3.30;2.13;;;0.70;99.90;;;;;;4931507;28;87420;-88
2021/01/12 14:00:09;;;;;;;3.15;2.47;;;0.70;99.90;;;;;;4939061;28;86297;-88
2021/01/12 14:02:36;;;;;;;5.43;3.22;;;0.80;99.90;;;;;;4924099;28;86352;-85
2021/01/12 14:05:04;;;;;;;3.63;2.70;;;0.90;99.90;;;;;;4934087;28;87481;-87
2021/01/12 14:07:32;;;;;;;5.15;2.38;;;0.90;99.90;;;;;;4937432;28;87369;-85
2021/01/12 14:10:02;;;;;;;15.57;6.30;;;1.00;99.90;;;;;;4917587;28;87834;-88
2021/01/12 14:12:28;;;;;;;6.57;2.90;;;1.00;99.90;;;;;;4931885;28;87053;-87
2021/01/12 14:14:54;;;;;;;6.75;2.90;;;1.10;99.90;;;;;;4930059;28;87875;-87
2021/01/12 14:17:22;;;;;;;3.90;1.92;;;1.00;99.90;;;;;;4937005;28;88338;-88
2021/01/12 14:19:48;;;;;;;2.92;2.00;;;1.10;99.90;;;;;;4946582;28;86270;-86
2021/01/12 14:22:19;;;;;;;4.78;2.67;;;1.10;99.90;;;;;;4932177;28;87374;-88
2021/01/12 14:24:47;;;;;;;;;;;1.10;99.90;;;;;;4926513;28;87343;-88
2021/01/12 14:27:14;;;;;;;2.50;1.83;;;1.20;99.90;;;;;;4952199;28;86851;-86
2021/01/12 14:29:41;;;;;;;2.47;1.85;;;1.20;99.90;;;;;;4918381;28;86581;-88
2021/01/12 14:32:08;;;;;;;1.67;1.17;;;1.20;99.90;;;;;;4934681;28;86805;-90
2021/01/12 14:34:35;;;;;;;2.28;1.60;;;1.20;99.90;;;;;;4930200;28;90193;-90
2021/01/12 14:37:03;;;;;;;2.28;1.55;;;2.20;99.90;;;;;;4918214;28;88819;-89
2021/01/12 14:40:01;;;;;;;2.60;2.00;;;1.30;99.90;;;;;;4890239;28;86970;-92
2021/01/12 14:42:27;;;;;;;1.88;1.38;;;;;;;;;;4897670;28;87413;-89
2021/01/12 14:44:54;;;;;;;4.45;2.30;;;1.30;99.90;;;;;;4919780;28;88289;-90
2021/01/12 14:47:21;;;;;;;4.50;2.70;;;1.30;99.90;;;;;;4943187;28;86402;-90
2021/01/12 14:50:01;;;;;;;9.35;5.05;;;;;;;;;;4893156;28;86519;-90
2021/01/12 14:52:35;;;;;;;5.00;3.10;;;1.40;99.90;;;;;;4932199;28;85678;-90
2021/01/12 14:55:01;;;;;;;4.43;2.80;;;1.40;99.90;;;;;;5093363;23;87767;-89
2021/01/12 14:57:27;;;;;;;2.28;1.70;;;1.50;99.90;;;;;;4951672;28;88431;-87
2021/01/12 14:59:53;;;;;;;3.45;2.22;;;1.60;99.90;;;;;;4936210;28;87975;-85
2021/01/12 15:02:19;;;;;;;2.80;2.35;;;1.60;99.90;;;;;;4967598;28;86699;-89
2021/01/12 15:04:45;;;;;;;4.95;2.13;;;;;;;;;;4949668;28;89241;-88
2021/01/12 15:07:12;;;;;;;4.57;2.22;;;1.50;99.90;;;;;;4941769;28;88820;-88
2021/01/12 15:09:39;;;;;;;5.97;3.22;;;1.40;99.90;;;;;;4944858;28;86879;-87
2021/01/12 15:12:05;;;;;;;6.38;4.05;;;1.40;99.90;;;;;;4942109;28;87220;-88
2021/01/12 15:14:52;;;;;;;5.10;3.58;;;1.50;99.90;;;;;;4972522;28;88671;-89
2021/01/12 15:17:18;;;;;;;10.27;5.40;;;1.40;99.90;;;;;;4946502;28;89814;-87
2021/01/12 15:19:44;;;;;;;12.20;7.60;;;;;;;;;;4964907;28;86981;-89
2021/01/12 15:22:10;;;;;;;7.10;4.05;;;;;;;;;;4946197;28;86967;-90
2021/01/12 15:24:36;;;;;;;8.73;4.43;;;;;;;;;;4962406;28;88619;-89
2021/01/12 15:27:02;;;;;;;10.57;5.43;;;1.40;99.90;;;;;;4952082;28;88685;-88
2021/01/12 15:29:29;;;;;;;5.55;4.05;;;;;;;;;;4949585;28;87401;-89
2021/01/12 15:32:01;;;;;;;9.40;3.53;;;1.30;99.90;;;;;;4949542;28;86581;-88
2021/01/12 15:34:28;;;;;;;6.00;2.90;;;1.30;99.90;;;;;;4950014;28;88256;-88
2021/01/12 15:36:54;;;;;;;6.28;3.47;;;1.30;99.90;;;;;;4936942;28;89418;-87
2021/01/12 15:39:19;;;;;;;10.95;4.07;;;1.30;99.90;;;;;;4946378;28;86846;-87
2021/01/12 15:41:45;;;;;;;5.78;3.55;;;1.30;99.90;;;;;;4945003;28;85588;-87
2021/01/12 15:44:11;;;;;;;9.35;4.75;;;;;;;;;;4954902;28;86841;-88
2021/01/12 15:47:01;;;;;;;7.07;3.72;;;1.30;99.90;;;;;;4934538;28;88780;-86
2021/01/12 15:49:27;;;;;;;7.50;4.82;;;;;;;;;;4962791;28;87734;-86
2021/01/12 15:51:53;;;;;;;8.68;5.05;;;1.30;99.90;;;;;;4968625;28;86548;-86
2021/01/12 15:54:20;;;;;;;3.35;2.60;;;1.30;99.90;;;;;;4937919;28;91156;-88
2021/01/12 15:56:46;;;;;;;8.48;5.13;;;1.30;99.90;;;;;;4942774;28;87344;-89
2021/01/12 15:59:13;;;;;;;22.83;10.85;;;1.30;99.90;;;;;;4931974;28;87310;-86
2021/01/12 16:01:47;;;;;;;18.42;8.63;;;1.20;99.90;;;;;;4944405;28;86295;-87
2021/01/12 16:04:13;;;;;;;9.70;6.22;;;;;;;;;;4937048;28;88684;-87
2021/01/12 16:06:41;;;;;;;6.82;4.43;;;1.10;99.90;;;;;;4931167;28;87238;-88
2021/01/12 16:09:07;;;;;;;7.10;5.93;;;;;;;;;;4946486;28;86938;-88
2021/01/12 16:11:39;;;;;;;12.02;7.22;;;1.10;99.90;;;;;;4934438;28;87186;-87
2021/01/12 16:14:05;;;;;;;7.88;5.15;;;;;;;;;;4941671;28;89648;-86
2021/01/12 16:16:31;;;;;;;10.68;5.10;;;1.10;99.90;;;;;;4940262;28;88150;-86
2021/01/12 16:18:57;;;;;;;12.50;7.13;;;1.10;99.90;;;;;;4929632;28;86811;-87
2021/01/12 16:21:26;;;;;;;14.55;6.95;;;1.10;99.90;;;;;;4924780;28;87726;-85
2021/01/12 16:23:52;;;;;;;16.80;10.07;;;1.10;99.90;;;;;;4939475;28;86924;-86
2021/01/12 16:26:18;;;;;;;12.02;4.90;;;1.10;99.90;;;;;;4944429;28;87445;-88
2021/01/12 16:28:45;;;;;;;16.70;7.82;;;1.40;99.90;;;;;;4927236;28;86842;-86
2021/01/12 16:31:12;;;;;;;16.60;8.60;;;1.00;99.90;;;;;;4949493;28;85447;-87
2021/01/12 16:33:38;;;;;;;11.77;7.88;;;1.00;99.90;;;;;;4933536;28;87471;-87
2021/01/12 16:36:06;;;;;;;9.70;6.00;;;1.00;99.90;;;;;;4927521;28;89936;-87
2021/01/12 16:38:32;;;;;;;9.52;6.10;;;1.00;99.90;;;;;;4921460;28;87691;-88
2021/01/12 16:40:57;;;;;;;7.65;5.53;;;1.10;99.90;;;;;;4912921;28;86574;-88
2021/01/12 16:43:23;;;;;;;10.40;6.35;;;1.10;99.90;;;;;;4936786;28;88621;-89
2021/01/12 16:45:58;;;;;;;11.05;6.13;;;1.20;99.90;;;;;;4922970;28;87834;-87
2021/01/12 16:48:26;;;;;;;6.75;4.82;;;1.20;99.90;;;;;;4936256;28;87476;-87
2021/01/12 16:50:53;;;;;;;9.40;6.65;;;1.20;99.90;;;;;;4938084;28;87060;-88